createdAt,value
2018-12-09T00:00:21.713Z,1.10
2018-12-09T00:02:49.517Z,2.30
2018-12-09T00:05:17.124Z,0.63
2018-12-09T00:07:44.906Z,0.70
2018-12-09T00:10:12.817Z,0.70
2018-12-09T00:12:40.388Z,0.73
2018-12-09T00:15:08.127Z,0.83
2018-12-09T00:17:36.183Z,2.03
2018-12-09T00:20:05.136Z,0.70
2018-12-09T00:22:33.729Z,0.80
2018-12-09T00:25:01.295Z,0.80
2018-12-09T00:27:28.838Z,1.80
2018-12-09T00:29:56.672Z,0.63
2018-12-09T00:32:24.226Z,0.60
2018-12-09T00:34:52.100Z,0.80
2018-12-09T00:37:19.645Z,0.50
2018-12-09T00:39:48.129Z,0.70
2018-12-09T00:42:16.006Z,0.60
2018-12-09T00:44:44.490Z,0.70
2018-12-09T00:47:12.046Z,0.60
2018-12-09T00:49:39.917Z,0.50
2018-12-09T00:52:07.864Z,0.60
2018-12-09T00:54:35.444Z,0.60
2018-12-09T00:57:03.356Z,0.60
2018-12-09T00:59:31.192Z,0.70
2018-12-09T01:02:00.713Z,0.60
2018-12-09T01:04:28.284Z,1.97
2018-12-09T01:06:56.313Z,0.90
2018-12-09T01:09:24.185Z,0.70
2018-12-09T01:11:51.737Z,0.60
2018-12-09T01:14:20.510Z,0.60
2018-12-09T01:16:48.094Z,0.90
2018-12-09T01:19:16.063Z,0.70
2018-12-09T01:21:43.604Z,0.60
2018-12-09T01:24:12.652Z,0.60
2018-12-09T01:26:40.221Z,0.63
2018-12-09T01:29:07.941Z,0.80
2018-12-09T01:31:35.513Z,0.73
2018-12-09T01:34:03.286Z,0.60
2018-12-09T01:36:31.851Z,1.57
2018-12-09T01:38:59.393Z,1.63
2018-12-09T01:41:27.149Z,2.20
2018-12-09T01:43:54.696Z,3.00
2018-12-09T01:46:22.253Z,0.87
2018-12-09T01:48:49.828Z,1.13
2018-12-09T01:51:17.372Z,0.73
2018-12-09T01:53:50.753Z,2.17
2018-12-09T01:56:18.296Z,1.43
2018-12-09T01:58:46.289Z,1.23
2018-12-09T02:01:13.848Z,1.40
2018-12-09T02:03:41.481Z,1.97
2018-12-09T02:06:09.034Z,2.67
2018-12-09T02:08:36.598Z,1.80
2018-12-09T02:11:04.181Z,1.90
2018-12-09T02:13:31.736Z,2.43
2018-12-09T02:15:59.309Z,1.97
2018-12-09T02:18:26.863Z,1.33
2018-12-09T02:20:54.501Z,6.33
2018-12-09T02:23:22.053Z,4.57
2018-12-09T02:25:49.636Z,3.27
2018-12-09T02:28:17.190Z,3.00
2018-12-09T02:30:44.762Z,5.73
2018-12-09T02:33:12.664Z,6.10
2018-12-09T02:35:47.280Z,2.03
2018-12-09T02:38:14.832Z,2.73
2018-12-09T02:40:42.572Z,4.33
2018-12-09T02:43:10.137Z,3.57
2018-12-09T02:45:37.688Z,2.80
2018-12-09T02:48:05.261Z,5.93
2018-12-09T02:50:32.820Z,2.90
2018-12-09T02:53:00.404Z,6.70
2018-12-09T02:55:28.281Z,5.40
2018-12-09T02:57:56.424Z,2.43
2018-12-09T03:00:23.989Z,1.20
2018-12-09T03:02:51.667Z,2.70
2018-12-09T03:05:19.328Z,1.77
2018-12-09T03:07:47.214Z,2.20
2018-12-09T03:10:14.753Z,2.10
2018-12-09T03:12:42.321Z,1.67
2018-12-09T03:15:09.970Z,1.63
2018-12-09T03:17:37.517Z,2.20
2018-12-09T03:20:05.162Z,1.83
2018-12-09T03:22:32.720Z,1.10
2018-12-09T03:25:00.295Z,2.60
2018-12-09T03:27:27.868Z,2.10
2018-12-09T03:29:55.462Z,2.10
2018-12-09T03:32:23.006Z,2.47
2018-12-09T03:34:50.737Z,1.47
2018-12-09T03:37:18.280Z,3.70
2018-12-09T03:39:45.849Z,1.20
2018-12-09T03:42:13.427Z,1.83
2018-12-09T03:44:41.825Z,1.43
2018-12-09T03:47:09.398Z,2.80
2018-12-09T03:49:36.955Z,6.60
2018-12-09T03:52:04.532Z,12.60
2018-12-09T03:54:32.093Z,6.53
2018-12-09T03:56:59.668Z,3.00
2018-12-09T03:59:27.230Z,7.23
2018-12-09T04:01:54.784Z,3.70
2018-12-09T04:04:22.356Z,4.20
2018-12-09T04:06:49.920Z,11.73
2018-12-09T04:09:17.651Z,4.57
2018-12-09T04:11:45.276Z,6.13
2018-12-09T04:14:12.852Z,4.23
2018-12-09T04:16:40.566Z,5.70
2018-12-09T04:19:08.141Z,3.97
2018-12-09T04:21:35.701Z,8.17
2018-12-09T04:24:03.281Z,6.57
2018-12-09T04:26:30.850Z,11.60
2018-12-09T04:28:58.402Z,9.23
2018-12-09T04:31:25.981Z,10.67
2018-12-09T04:33:53.524Z,5.73
2018-12-09T04:36:21.100Z,4.00
2018-12-09T04:38:48.648Z,3.50
2018-12-09T04:41:16.224Z,9.60
2018-12-09T04:43:43.777Z,4.43
2018-12-09T04:46:11.370Z,3.83
2018-12-09T04:48:38.917Z,8.03
2018-12-09T04:51:06.685Z,7.93
2018-12-09T04:53:34.273Z,7.83
2018-12-09T04:56:01.829Z,4.50
2018-12-09T04:58:29.405Z,6.80
2018-12-09T05:00:56.958Z,4.07
2018-12-09T05:03:24.529Z,5.23
2018-12-09T05:05:52.092Z,4.03
2018-12-09T05:08:19.948Z,2.90
2018-12-09T05:10:47.501Z,3.83
2018-12-09T05:13:15.054Z,5.10
2018-12-09T05:15:42.625Z,8.53
2018-12-09T05:18:10.179Z,3.50
2018-12-09T05:20:37.758Z,4.33
2018-12-09T05:23:05.308Z,3.70
2018-12-09T05:25:32.867Z,3.60
2018-12-09T05:28:00.409Z,3.40
2018-12-09T05:30:27.987Z,2.30
2018-12-09T05:32:55.605Z,3.57
2018-12-09T05:35:23.176Z,2.87
2018-12-09T05:37:50.728Z,4.93
2018-12-09T05:40:18.281Z,3.67
2018-12-09T05:42:45.855Z,8.40
2018-12-09T05:45:13.418Z,2.33
2018-12-09T05:47:41.407Z,4.17
2018-12-09T05:50:08.957Z,4.97
2018-12-09T05:52:36.529Z,6.13
2018-12-09T05:55:04.840Z,3.33
2018-12-09T05:57:32.401Z,6.57
2018-12-09T06:00:00.303Z,4.10
2018-12-09T06:02:33.676Z,7.83
2018-12-09T06:05:01.264Z,9.10
2018-12-09T06:07:28.930Z,9.07
2018-12-09T06:09:56.501Z,6.23
2018-12-09T06:12:24.050Z,7.27
2018-12-09T06:14:51.604Z,14.60
2018-12-09T06:17:19.825Z,14.90
2018-12-09T06:19:47.406Z,12.97
2018-12-09T06:22:14.988Z,10.37
2018-12-09T06:24:42.535Z,8.47
2018-12-09T06:27:10.113Z,12.13
2018-12-09T06:29:37.671Z,8.30
2018-12-09T06:32:05.250Z,10.03
2018-12-09T06:34:32.822Z,10.83
2018-12-09T06:37:00.597Z,11.40
2018-12-09T06:39:28.182Z,4.30
2018-12-09T06:41:55.728Z,9.30
2018-12-09T06:44:23.320Z,9.20
2018-12-09T06:46:50.879Z,12.60
2018-12-09T06:49:18.764Z,9.20
2018-12-09T06:51:46.309Z,4.47
2018-12-09T06:54:13.888Z,11.57
2018-12-09T06:56:41.456Z,11.10
2018-12-09T06:59:09.033Z,7.63
2018-12-09T07:01:36.576Z,5.90
2018-12-09T07:04:04.128Z,9.20
2018-12-09T07:06:31.706Z,3.90
2018-12-09T07:08:59.271Z,16.53
2018-12-09T07:11:26.849Z,4.60
2018-12-09T07:13:54.412Z,5.90
2018-12-09T07:16:22.304Z,7.30
2018-12-09T07:18:49.917Z,4.03
2018-12-09T07:21:17.495Z,9.60
2018-12-09T07:23:45.049Z,5.90
2018-12-09T07:26:12.606Z,8.03
2018-12-09T07:28:40.591Z,2.53
2018-12-09T07:31:08.137Z,5.33
2018-12-09T07:33:35.713Z,7.43
2018-12-09T07:36:03.333Z,5.50
2018-12-09T07:38:30.940Z,3.70
2018-12-09T07:40:58.501Z,1.67
2018-12-09T07:43:26.075Z,5.60
2018-12-09T07:45:53.633Z,5.10
2018-12-09T07:48:21.200Z,6.50
2018-12-09T07:50:48.761Z,8.50
2018-12-09T07:53:16.345Z,5.07
2018-12-09T07:55:43.888Z,4.90
2018-12-09T07:58:11.440Z,6.90
2018-12-09T08:00:39.068Z,8.27
2018-12-09T08:03:06.625Z,4.27
2018-12-09T08:05:34.198Z,10.80
2018-12-09T08:08:01.747Z,41.97
2018-12-09T08:10:29.312Z,11.20
2018-12-09T08:12:56.861Z,10.00
2018-12-09T08:15:24.508Z,9.73
2018-12-09T08:17:52.047Z,7.10
2018-12-09T08:20:19.605Z,7.60
2018-12-09T08:22:47.172Z,7.80
2018-12-09T08:25:14.736Z,5.30
2018-12-09T08:27:42.308Z,8.47
2018-12-09T08:30:09.848Z,6.07
2018-12-09T08:32:37.705Z,9.20
2018-12-09T08:35:05.329Z,8.67
2018-12-09T08:37:32.873Z,16.93
2018-12-09T08:40:00.445Z,8.93
2018-12-09T08:42:27.989Z,7.83
2018-12-09T08:44:55.549Z,9.07
2018-12-09T08:47:23.088Z,8.07
2018-12-09T08:49:50.660Z,6.67
2018-12-09T08:52:18.214Z,11.40
2018-12-09T08:54:45.812Z,10.23
2018-12-09T08:57:13.369Z,8.43
2018-12-09T08:59:40.917Z,11.80
2018-12-09T09:02:08.488Z,10.20
2018-12-09T09:04:36.042Z,5.57
2018-12-09T09:07:03.604Z,7.07
2018-12-09T09:09:31.178Z,14.67
2018-12-09T09:11:58.753Z,17.40
2018-12-09T09:14:26.295Z,17.93
2018-12-09T09:16:53.900Z,9.53
2018-12-09T09:19:21.453Z,11.90
2018-12-09T09:21:49.008Z,11.33
2018-12-09T09:24:16.620Z,10.90
2018-12-09T09:26:44.167Z,9.17
2018-12-09T09:29:11.749Z,16.27
2018-12-09T09:31:39.298Z,7.50
2018-12-09T09:34:06.873Z,15.10
2018-12-09T09:36:34.507Z,10.10
2018-12-09T09:39:02.093Z,14.27
2018-12-09T09:41:29.777Z,17.83
2018-12-09T09:43:57.327Z,10.80
2018-12-09T09:46:25.066Z,18.60
2018-12-09T09:48:52.620Z,11.70
2018-12-09T09:51:20.202Z,13.90
2018-12-09T09:53:47.753Z,16.30
2018-12-09T09:56:15.337Z,24.73
2018-12-09T09:58:42.891Z,9.10
2018-12-09T10:01:10.549Z,11.40
2018-12-09T10:03:38.110Z,10.73
2018-12-09T10:06:05.683Z,13.77
2018-12-09T10:08:33.224Z,13.70
2018-12-09T10:11:00.776Z,15.23
2018-12-09T10:13:28.340Z,11.03
2018-12-09T10:15:55.897Z,6.90
2018-12-09T10:18:23.469Z,9.00
2018-12-09T10:20:51.021Z,15.70
2018-12-09T10:23:18.609Z,32.80
2018-12-09T10:25:46.165Z,11.57
2018-12-09T10:28:13.814Z,33.40
2018-12-09T10:30:41.367Z,32.73
2018-12-09T10:33:08.965Z,24.63
2018-12-09T10:35:36.532Z,6.13
2018-12-09T10:38:04.080Z,17.00
2018-12-09T10:40:31.645Z,21.00
2018-12-09T10:42:59.264Z,17.87
2018-12-09T10:45:26.836Z,13.83
2018-12-09T10:47:54.387Z,19.90
2018-12-09T10:50:21.956Z,13.80
2018-12-09T10:52:49.516Z,12.40
2018-12-09T10:55:17.091Z,10.63
2018-12-09T10:57:45.165Z,8.73
2018-12-09T11:00:14.756Z,18.83
2018-12-09T11:02:42.310Z,11.13
2018-12-09T11:05:09.890Z,8.50
2018-12-09T11:07:37.448Z,8.80
2018-12-09T11:10:05.580Z,4.93
2018-12-09T11:12:33.372Z,14.70
2018-12-09T11:15:00.949Z,12.00
2018-12-09T11:17:28.601Z,5.70
2018-12-09T11:19:56.176Z,5.90
2018-12-09T11:22:23.729Z,4.50
2018-12-09T11:24:51.305Z,8.07
2018-12-09T11:27:18.868Z,6.07
2018-12-09T11:29:46.439Z,6.97
2018-12-09T11:32:13.985Z,6.40
2018-12-09T11:34:41.552Z,7.90
2018-12-09T11:37:09.101Z,7.20
2018-12-09T11:39:36.674Z,5.40
2018-12-09T11:42:04.223Z,6.60
2018-12-09T11:44:31.768Z,8.43
2018-12-09T11:46:59.350Z,5.03
2018-12-09T11:49:26.896Z,10.07
2018-12-09T11:51:55.084Z,5.60
2018-12-09T11:54:22.638Z,5.67
2018-12-09T11:56:50.212Z,10.63
2018-12-09T11:59:17.761Z,6.83
2018-12-09T12:01:45.324Z,6.20
2018-12-09T12:04:12.864Z,5.70
2018-12-09T12:06:40.429Z,6.40
2018-12-09T12:09:07.981Z,8.47
2018-12-09T12:11:35.554Z,5.97
2018-12-09T12:14:03.100Z,14.13
2018-12-09T12:16:30.680Z,9.17
2018-12-09T12:18:58.243Z,6.30
2018-12-09T12:21:25.829Z,4.97
2018-12-09T12:23:53.381Z,10.90
2018-12-09T12:26:21.013Z,9.97
2018-12-09T12:28:48.620Z,6.13
2018-12-09T12:31:16.193Z,5.03
2018-12-09T12:33:43.740Z,8.03
2018-12-09T12:36:11.308Z,11.03
2018-12-09T12:38:38.855Z,8.40
2018-12-09T12:41:06.484Z,7.57
2018-12-09T12:43:34.103Z,8.60
2018-12-09T12:46:01.674Z,8.73
2018-12-09T12:48:29.218Z,8.33
2018-12-09T12:50:56.789Z,6.13
2018-12-09T12:53:24.380Z,6.50
2018-12-09T12:55:52.021Z,7.80
2018-12-09T12:58:19.575Z,5.30
2018-12-09T13:00:47.146Z,5.23
2018-12-09T13:03:14.696Z,2.50
2018-12-09T13:05:42.324Z,6.47
2018-12-09T13:08:10.236Z,3.43
2018-12-09T13:10:37.801Z,8.40
2018-12-09T13:13:05.353Z,6.90
2018-12-09T13:15:32.904Z,4.07
2018-12-09T13:18:00.477Z,2.70
2018-12-09T13:20:28.030Z,2.77
2018-12-09T13:22:55.597Z,3.57
2018-12-09T13:25:23.408Z,2.17
2018-12-09T13:27:50.976Z,2.70
2018-12-09T13:30:18.584Z,2.53
2018-12-09T13:32:46.239Z,1.77
2018-12-09T13:35:13.884Z,2.60
2018-12-09T13:37:41.450Z,2.23
2018-12-09T13:40:09.069Z,2.53
2018-12-09T13:42:36.657Z,2.80
2018-12-09T13:45:04.991Z,3.37
2018-12-09T13:47:32.556Z,1.90
2018-12-09T13:50:00.108Z,1.77
2018-12-09T13:52:27.690Z,1.33
2018-12-09T13:54:55.241Z,1.23
2018-12-09T13:57:22.804Z,1.23
2018-12-09T13:59:50.352Z,5.13
2018-12-09T14:02:17.928Z,1.17
2018-12-09T14:04:45.485Z,3.33
2018-12-09T14:07:13.049Z,1.80
2018-12-09T14:09:40.596Z,2.33
2018-12-09T14:12:08.157Z,1.90
2018-12-09T14:14:35.697Z,3.70
2018-12-09T14:17:03.448Z,2.30
2018-12-09T14:19:31.060Z,1.40
2018-12-09T14:21:58.637Z,1.73
2018-12-09T14:24:26.317Z,1.00
2018-12-09T14:26:53.888Z,2.40
2018-12-09T14:29:21.509Z,6.40
2018-12-09T14:31:49.374Z,2.50
2018-12-09T14:34:16.925Z,2.77
2018-12-09T14:36:44.564Z,3.57
2018-12-09T14:39:12.109Z,4.17
2018-12-09T14:41:39.669Z,2.00
2018-12-09T14:44:07.244Z,3.00
2018-12-09T14:46:34.792Z,1.67
2018-12-09T14:49:02.364Z,13.97
2018-12-09T14:51:29.920Z,16.37
2018-12-09T14:53:57.496Z,4.13
2018-12-09T14:56:25.049Z,6.50
2018-12-09T14:58:52.621Z,4.00
2018-12-09T15:01:20.172Z,3.00
2018-12-09T15:03:47.745Z,2.63
2018-12-09T15:06:15.305Z,2.33
2018-12-09T15:08:42.877Z,2.70
2018-12-09T15:11:10.429Z,2.13
2018-12-09T15:13:37.996Z,3.93
2018-12-09T15:16:05.605Z,2.73
2018-12-09T15:18:33.173Z,4.53
2018-12-09T15:21:00.726Z,1.80
2018-12-09T15:23:28.296Z,2.60
2018-12-09T15:25:55.851Z,5.40
2018-12-09T15:28:23.416Z,2.03
2018-12-09T15:30:50.961Z,1.50
2018-12-09T15:33:18.524Z,2.10
2018-12-09T15:35:46.078Z,2.27
2018-12-09T15:38:13.645Z,2.07
2018-12-09T15:40:41.197Z,2.87
2018-12-09T15:43:08.765Z,1.10
2018-12-09T15:45:36.304Z,1.97
2018-12-09T15:48:03.869Z,1.73
2018-12-09T15:50:31.413Z,3.17
2018-12-09T15:52:58.985Z,1.30
2018-12-09T15:55:26.540Z,1.50
2018-12-09T15:57:54.104Z,3.47
2018-12-09T16:00:21.649Z,2.40
2018-12-09T16:02:49.225Z,1.80
2018-12-09T16:05:16.768Z,1.27
2018-12-09T16:07:44.344Z,1.70
2018-12-09T16:10:11.889Z,3.63
2018-12-09T16:12:39.456Z,1.53
2018-12-09T16:15:07.011Z,3.83
2018-12-09T16:17:34.552Z,1.53
2018-12-09T16:20:02.193Z,1.83
2018-12-09T16:22:29.752Z,1.93
2018-12-09T16:24:57.317Z,1.37
2018-12-09T16:27:24.864Z,1.10
2018-12-09T16:29:52.438Z,1.37
2018-12-09T16:32:19.990Z,2.10
2018-12-09T16:34:47.573Z,1.47
2018-12-09T16:37:15.126Z,2.60
2018-12-09T16:39:42.696Z,2.07
2018-12-09T16:42:10.236Z,1.20
2018-12-09T16:44:37.809Z,3.90
2018-12-09T16:47:05.361Z,1.97
2018-12-09T16:49:32.928Z,13.57
2018-12-09T16:52:00.553Z,5.33
2018-12-09T16:54:28.127Z,2.60
2018-12-09T16:56:55.677Z,2.80
2018-12-09T16:59:23.252Z,1.97
2018-12-09T17:01:50.796Z,1.70
2018-12-09T17:04:18.370Z,1.60
2018-12-09T17:06:45.926Z,1.60
2018-12-09T17:09:13.493Z,1.50
2018-12-09T17:11:41.032Z,2.77
2018-12-09T17:14:08.597Z,3.70
2018-12-09T17:16:36.208Z,1.83
2018-12-09T17:19:03.776Z,2.97
2018-12-09T17:21:31.442Z,2.47
2018-12-09T17:23:59.115Z,1.90
2018-12-09T17:26:26.664Z,3.60
2018-12-09T17:28:54.228Z,1.87
2018-12-09T17:31:21.777Z,1.73
2018-12-09T17:33:49.356Z,1.40
2018-12-09T17:36:16.899Z,1.50
2018-12-09T17:38:44.469Z,1.90
2018-12-09T17:41:12.019Z,4.60
2018-12-09T17:43:39.605Z,1.30
2018-12-09T17:46:07.160Z,2.40
2018-12-09T17:48:34.729Z,4.70
2018-12-09T17:51:02.280Z,12.13
2018-12-09T17:53:29.853Z,4.87
2018-12-09T17:55:57.400Z,5.10
2018-12-09T17:58:24.956Z,2.80
2018-12-09T18:00:52.528Z,11.20
2018-12-09T18:03:20.296Z,3.07
2018-12-09T18:05:47.870Z,2.43
2018-12-09T18:08:15.430Z,3.70
2018-12-09T18:10:42.998Z,3.10
2018-12-09T18:13:10.549Z,2.57
2018-12-09T18:15:38.127Z,2.30
2018-12-09T18:18:05.663Z,5.00
2018-12-09T18:20:33.228Z,3.07
2018-12-09T18:23:00.781Z,3.03
2018-12-09T18:25:28.353Z,2.37
2018-12-09T18:27:55.904Z,3.43
2018-12-09T18:30:23.468Z,4.40
2018-12-09T18:32:51.381Z,1.67
2018-12-09T18:35:18.949Z,2.13
2018-12-09T18:37:46.625Z,1.80
2018-12-09T18:40:14.287Z,3.67
2018-12-09T18:42:41.848Z,1.43
2018-12-09T18:45:09.414Z,1.40
2018-12-09T18:47:36.972Z,2.60
2018-12-09T18:50:05.009Z,1.60
2018-12-09T18:52:32.561Z,1.50
2018-12-09T18:55:01.134Z,1.47
2018-12-09T18:57:28.688Z,4.60
2018-12-09T18:59:56.253Z,2.53
2018-12-09T19:02:23.801Z,1.33
2018-12-09T19:04:52.428Z,4.53
2018-12-09T19:07:20.171Z,6.90
2018-12-09T19:09:47.814Z,1.50
2018-12-09T19:12:15.376Z,2.97
2018-12-09T19:14:42.944Z,6.90
2018-12-09T19:17:10.498Z,1.50
2018-12-09T19:19:38.068Z,2.77
2018-12-09T19:22:05.620Z,1.70
2018-12-09T19:24:33.201Z,2.63
2018-12-09T19:27:00.756Z,1.50
2018-12-09T19:29:28.324Z,1.90
2018-12-09T19:31:55.877Z,2.33
2018-12-09T19:34:23.445Z,3.43
2018-12-09T19:36:50.988Z,2.20
2018-12-09T19:39:18.542Z,3.57
2018-12-09T19:41:46.108Z,1.77
2018-12-09T19:44:13.665Z,1.67
2018-12-09T19:46:41.234Z,4.63
2018-12-09T19:49:08.793Z,1.73
2018-12-09T19:51:36.369Z,4.70
2018-12-09T19:54:03.993Z,13.60
2018-12-09T19:56:31.565Z,2.93
2018-12-09T19:58:59.112Z,2.07
2018-12-09T20:01:26.683Z,12.60
2018-12-09T20:03:54.228Z,5.87
2018-12-09T20:06:21.877Z,2.20
2018-12-09T20:08:49.425Z,2.47
2018-12-09T20:11:16.988Z,7.30
2018-12-09T20:13:45.154Z,2.20
2018-12-09T20:16:12.733Z,3.53
2018-12-09T20:18:40.284Z,3.67
2018-12-09T20:21:07.880Z,3.20
2018-12-09T20:23:35.437Z,3.43
2018-12-09T20:26:03.009Z,3.47
2018-12-09T20:28:30.571Z,6.13
2018-12-09T20:30:58.136Z,5.13
2018-12-09T20:33:26.168Z,2.13
2018-12-09T20:35:53.880Z,2.07
2018-12-09T20:38:21.426Z,1.63
2018-12-09T20:40:48.999Z,2.60
2018-12-09T20:43:16.540Z,2.17
2018-12-09T20:45:44.101Z,4.37
2018-12-09T20:48:13.532Z,3.60
2018-12-09T20:50:41.253Z,5.00
2018-12-09T20:53:08.797Z,4.27
2018-12-09T20:55:36.885Z,2.30
2018-12-09T20:58:04.430Z,2.90
2018-12-09T21:00:32.013Z,4.50
2018-12-09T21:02:59.566Z,8.00
2018-12-09T21:05:27.137Z,3.30
2018-12-09T21:07:54.684Z,3.00
2018-12-09T21:10:22.258Z,2.47
2018-12-09T21:12:49.817Z,2.20
2018-12-09T21:15:17.373Z,3.60
2018-12-09T21:17:44.950Z,1.93
2018-12-09T21:20:12.514Z,2.77
2018-12-09T21:22:40.104Z,1.70
2018-12-09T21:25:07.644Z,2.07
2018-12-09T21:27:35.222Z,3.77
2018-12-09T21:30:02.928Z,4.30
2018-12-09T21:32:30.490Z,3.97
2018-12-09T21:34:58.044Z,5.70
2018-12-09T21:37:25.613Z,5.80
2018-12-09T21:39:53.152Z,3.63
2018-12-09T21:42:20.724Z,1.73
2018-12-09T21:44:48.269Z,4.03
2018-12-09T21:47:15.845Z,1.90
2018-12-09T21:49:43.405Z,1.70
2018-12-09T21:52:10.981Z,7.33
2018-12-09T21:54:38.524Z,2.10
2018-12-09T21:57:06.084Z,4.27
2018-12-09T21:59:33.638Z,4.23
2018-12-09T22:02:01.208Z,3.23
2018-12-09T22:04:28.765Z,1.77
2018-12-09T22:06:56.345Z,1.70
2018-12-09T22:09:23.896Z,4.10
2018-12-09T22:11:51.470Z,2.03
2018-12-09T22:14:19.009Z,2.00
2018-12-09T22:16:46.581Z,4.20
2018-12-09T22:19:14.129Z,5.13
2018-12-09T22:21:41.705Z,3.30
2018-12-09T22:24:09.257Z,4.47
2018-12-09T22:26:36.830Z,1.47
2018-12-09T22:29:04.385Z,3.37
2018-12-09T22:31:31.948Z,1.40
2018-12-09T22:33:59.493Z,2.67
2018-12-09T22:36:27.065Z,2.97
2018-12-09T22:38:54.620Z,2.43
2018-12-09T22:41:22.184Z,1.37
2018-12-09T22:43:49.724Z,3.37
2018-12-09T22:46:17.268Z,6.50
2018-12-09T22:48:44.856Z,4.30
2018-12-09T22:51:12.417Z,1.90
2018-12-09T22:53:39.979Z,3.50
2018-12-09T22:56:07.525Z,1.43
2018-12-09T22:58:35.084Z,2.50
2018-12-09T23:01:08.247Z,2.63
2018-12-09T23:03:35.889Z,3.67
2018-12-09T23:06:03.504Z,4.83
2018-12-09T23:08:31.072Z,1.93
2018-12-09T23:10:58.612Z,1.67
2018-12-09T23:13:26.184Z,3.23
2018-12-09T23:15:53.724Z,2.00
2018-12-09T23:18:21.297Z,3.37
2018-12-09T23:20:48.840Z,2.73
2018-12-09T23:23:16.415Z,5.07
2018-12-09T23:25:43.960Z,4.40
2018-12-09T23:28:11.539Z,1.63
2018-12-09T23:30:39.099Z,2.37
2018-12-09T23:33:06.728Z,2.37
2018-12-09T23:35:34.281Z,3.57
2018-12-09T23:38:01.848Z,1.40
2018-12-09T23:40:29.388Z,1.60
2018-12-09T23:42:56.967Z,6.37
2018-12-09T23:45:24.517Z,2.60
2018-12-09T23:47:52.084Z,2.10
2018-12-09T23:50:19.632Z,1.40
2018-12-09T23:52:47.205Z,1.30
2018-12-09T23:55:14.754Z,1.33
2018-12-09T23:57:42.316Z,2.93
